Time,TemperatureF,DewpointF,PressureIn,WindDirection,WindDirectionDegrees,WindSpeedMPH,WindSpeedGustMPH,Humidity,HourlyPrecipIn,Conditions,Clouds,dailyrainin,SoftwareType,DateUTC
2013-09-23 00:12:00,66.0,56.0,29.62,SSE,150,4.0,11.0,70,0.00,,,0.00,,2013-09-23 05:12:00,
2013-09-23 00:22:00,67.0,56.0,29.62,SE,139,5.0,12.0,68,0.00,,,0.00,,2013-09-23 05:22:00,
2013-09-23 00:43:00,66.0,56.0,29.63,SE,131,4.0,9.0,69,0.00,,,0.00,,2013-09-23 05:43:00,
2013-09-23 00:53:00,66.0,56.0,29.63,SE,129,4.0,16.0,69,0.00,,,0.00,,2013-09-23 05:53:00,
2013-09-23 01:13:00,65.0,55.0,29.63,SSW,206,3.0,9.0,71,0.00,,,0.00,,2013-09-23 06:13:00,
2013-09-23 01:22:00,65.0,56.0,29.62,SW,232,3.0,7.0,72,0.00,,,0.00,,2013-09-23 06:22:00,
2013-09-23 01:52:00,65.0,54.0,29.63,SSE,159,5.0,11.0,68,0.00,,,0.00,,2013-09-23 06:52:00,
2013-09-23 02:12:00,66.0,54.0,29.62,SW,215,8.0,15.0,66,0.00,,,0.00,,2013-09-23 07:12:00,
2013-09-23 02:22:00,66.0,54.0,29.62,South,183,6.0,14.0,66,0.00,,,0.00,,2013-09-23 07:22:00,
2013-09-23 02:42:00,66.0,55.0,29.62,SSE,163,5.0,13.0,67,0.00,,,0.00,,2013-09-23 07:42:00,
2013-09-23 02:52:00,66.0,55.0,29.62,SSE,156,4.0,12.0,67,0.00,,,0.00,,2013-09-23 07:52:00,
2013-09-23 03:11:00,65.0,54.0,29.63,South,181,6.0,15.0,67,0.00,,,0.00,,2013-09-23 08:11:00,
2013-09-23 03:23:00,65.0,54.0,29.63,SW,214,5.0,12.0,67,0.00,,,0.00,,2013-09-23 08:23:00,
2013-09-23 03:42:00,65.0,54.0,29.62,SSW,212,4.0,13.0,68,0.00,,,0.00,,2013-09-23 08:42:00,
2013-09-23 03:52:00,65.0,54.0,29.62,SSW,193,4.0,14.0,68,0.00,,,0.00,,2013-09-23 08:52:00,
2013-09-23 04:11:00,64.0,54.0,29.62,South,184,3.0,13.0,69,0.00,,,0.00,,2013-09-23 09:11:00,
2013-09-23 04:21:00,64.0,54.0,29.62,South,181,4.0,12.0,69,0.00,,,0.00,,2013-09-23 09:21:00,
2013-09-23 04:43:00,64.0,54.0,29.62,South,170,7.0,18.0,69,0.00,,,0.00,,2013-09-23 09:43:00,
2013-09-23 04:53:00,64.0,54.0,29.62,South,177,5.0,15.0,69,0.00,,,0.00,,2013-09-23 09:53:00,
2013-09-23 05:13:00,64.0,54.0,29.62,SSE,151,6.0,17.0,69,0.00,,,0.00,,2013-09-23 10:13:00,
2013-09-23 05:23:00,63.0,53.0,29.62,South,181,5.0,14.0,70,0.00,,,0.00,,2013-09-23 10:23:00,
2013-09-23 05:42:00,63.0,53.0,29.62,SSE,148,5.0,14.0,71,0.00,,,0.00,,2013-09-23 10:42:00,
2013-09-23 05:53:00,63.0,53.0,29.62,SE,139,5.0,13.0,71,0.00,,,0.00,,2013-09-23 10:53:00,
2013-09-23 06:12:00,63.0,53.0,29.63,SSW,203,4.0,15.0,71,0.00,,,0.00,,2013-09-23 11:12:00,
2013-09-23 06:21:00,63.0,53.0,29.62,SE,136,6.0,15.0,71,0.00,,,0.00,,2013-09-23 11:21:00,
2013-09-23 06:42:00,63.0,53.0,29.63,South,181,5.0,11.0,71,0.00,,,0.00,,2013-09-23 11:42:00,
2013-09-23 06:52:00,63.0,53.0,29.64,SSW,195,6.0,17.0,71,0.00,,,0.00,,2013-09-23 11:52:00,
2013-09-23 07:11:00,63.0,54.0,29.65,SE,136,6.0,10.0,72,0.00,,,0.00,,2013-09-23 12:11:00,
2013-09-23 07:22:00,62.0,53.0,29.65,SSW,208,4.0,8.0,73,0.00,,,0.00,,2013-09-23 12:22:00,
2013-09-23 07:52:00,62.0,54.0,29.65,SSE,159,6.0,18.0,74,0.00,,,0.00,,2013-09-23 12:52:00,
2013-09-23 08:11:00,61.0,53.0,29.65,South,187,7.0,14.0,75,0.00,,,0.00,,2013-09-23 13:11:00,
2013-09-23 08:22:00,62.0,54.0,29.64,South,187,7.0,19.0,74,0.00,,,0.00,,2013-09-23 13:22:00,
2013-09-23 08:42:00,63.0,54.0,29.64,SSE,150,6.0,20.0,73,0.00,,,0.00,,2013-09-23 13:42:00,
2013-09-23 08:52:00,63.0,54.0,29.64,SSW,211,8.0,19.0,72,0.00,,,0.00,,2013-09-23 13:52:00,
2013-09-23 09:01:00,63.0,54.0,29.64,SSW,211,8.0,19.0,72,0.00,,,0.00,,2013-09-23 14:01:00,
2013-09-23 09:11:00,63.0,54.0,29.64,SSW,211,8.0,19.0,72,0.00,,,0.00,,2013-09-23 14:11:00,
2013-09-23 09:22:00,64.0,54.0,29.65,SSW,200,12.0,22.0,69,0.00,,,0.00,,2013-09-23 14:22:00,
2013-09-23 09:43:00,65.0,54.0,29.65,South,178,15.0,25.0,67,0.00,,,0.00,,2013-09-23 14:43:00,
2013-09-23 09:52:00,66.0,54.0,29.65,South,190,14.0,27.0,66,0.00,,,0.00,,2013-09-23 14:52:00,
2013-09-23 10:11:00,66.0,54.0,29.65,SSE,165,15.0,27.0,65,0.00,,,0.00,,2013-09-23 15:11:00,
2013-09-23 10:21:00,67.0,54.0,29.65,South,170,13.0,23.0,64,0.00,,,0.00,,2013-09-23 15:21:00,
2013-09-23 10:43:00,68.0,54.0,29.65,SSW,204,14.0,24.0,62,0.00,,,0.00,,2013-09-23 15:43:00,
2013-09-23 10:54:00,68.0,54.0,29.65,South,171,11.0,23.0,62,0.00,,,0.00,,2013-09-23 15:54:00,
2013-09-23 11:12:00,69.0,55.0,29.65,SSE,156,12.0,23.0,61,0.00,,,0.00,,2013-09-23 16:12:00,
2013-09-23 11:24:00,70.0,55.0,29.65,SSW,200,10.0,22.0,59,0.00,,,0.00,,2013-09-23 16:24:00,
2013-09-23 11:53:00,71.0,55.0,29.65,South,172,12.0,22.0,57,0.00,,,0.00,,2013-09-23 16:53:00,
2013-09-23 12:12:00,72.0,55.0,29.65,South,169,12.0,21.0,55,0.00,,,0.00,,2013-09-23 17:12:00,
2013-09-23 12:24:00,72.0,54.0,29.65,SW,221,13.0,23.0,54,0.00,,,0.00,,2013-09-23 17:24:00,
2013-09-23 12:42:00,73.0,55.0,29.65,South,191,11.0,21.0,54,0.00,,,0.00,,2013-09-23 17:42:00,
2013-09-23 12:52:00,74.0,56.0,29.65,South,190,7.0,21.0,53,0.00,,,0.00,,2013-09-23 17:52:00,
2013-09-23 13:12:00,74.0,55.0,29.65,SSW,212,15.0,21.0,51,0.00,,,0.00,,2013-09-23 18:12:00,
2013-09-23 13:21:00,75.0,56.0,29.64,SSW,201,10.0,20.0,51,0.00,,,0.00,,2013-09-23 18:21:00,
2013-09-23 13:52:00,76.0,54.0,29.64,SSW,196,12.0,26.0,47,0.00,,,0.00,,2013-09-23 18:52:00,
2013-09-23 14:12:00,77.0,55.0,29.64,South,179,12.0,20.0,47,0.00,,,0.00,,2013-09-23 19:12:00,
2013-09-23 14:42:00,77.0,55.0,29.63,South,174,12.0,22.0,47,0.00,,,0.00,,2013-09-23 19:42:00,
2013-09-23 14:53:00,77.0,54.0,29.64,South,188,19.0,33.0,45,0.00,,,0.00,,2013-09-23 19:53:00,
2013-09-23 15:12:00,76.0,54.0,29.63,South,176,13.0,22.0,47,0.00,,,0.00,,2013-09-23 20:12:00,
2013-09-23 15:22:00,76.0,54.0,29.63,SSE,162,11.0,26.0,47,0.00,,,0.00,,2013-09-23 20:22:00,
2013-09-23 15:52:00,78.0,55.0,29.63,SE,141,11.0,24.0,45,0.00,,,0.00,,2013-09-23 20:52:00,
2013-09-23 16:11:00,78.0,55.0,29.63,SSW,197,17.0,26.0,45,0.00,,,0.00,,2013-09-23 21:11:00,
2013-09-23 16:23:00,78.0,56.0,29.63,SSE,151,13.0,26.0,46,0.00,,,0.00,,2013-09-23 21:23:00,
2013-09-23 16:44:00,79.0,56.0,29.63,SW,217,11.0,21.0,45,0.00,,,0.00,,2013-09-23 21:44:00,
2013-09-23 16:54:00,79.0,55.0,29.63,South,190,13.0,24.0,43,0.00,,,0.00,,2013-09-23 21:54:00,
2013-09-23 17:13:00,79.0,55.0,29.64,SSE,162,11.0,22.0,43,0.00,,,0.00,,2013-09-23 22:13:00,
2013-09-23 17:24:00,79.0,55.0,29.64,SE,133,13.0,26.0,44,0.00,,,0.00,,2013-09-23 22:24:00,
2013-09-23 17:43:00,79.0,55.0,29.64,SSE,155,12.0,27.0,44,0.00,,,0.00,,2013-09-23 22:43:00,
2013-09-23 17:54:00,78.0,56.0,29.65,SSE,148,6.0,16.0,46,0.00,,,0.00,,2013-09-23 22:54:00,
2013-09-23 18:12:00,78.0,55.0,29.65,SW,231,9.0,20.0,45,0.00,,,0.00,,2013-09-23 23:12:00,
2013-09-23 18:22:00,77.0,55.0,29.65,SSE,165,12.0,20.0,46,0.00,,,0.00,,2013-09-23 23:22:00,
2013-09-23 18:54:00,76.0,55.0,29.65,SW,214,7.0,20.0,48,0.00,,,0.00,,2013-09-23 23:54:00,
2013-09-23 19:11:00,75.0,55.0,29.66,South,177,5.0,14.0,49,0.00,,,0.00,,2013-09-24 00:11:00,
2013-09-23 19:22:00,74.0,55.0,29.67,South,176,4.0,11.0,51,0.00,,,0.00,,2013-09-24 00:22:00,
2013-09-23 19:42:00,73.0,55.0,29.67,SSE,163,4.0,10.0,53,0.00,,,0.00,,2013-09-24 00:42:00,
2013-09-23 19:52:00,72.0,55.0,29.67,South,185,6.0,13.0,55,0.00,,,0.00,,2013-09-24 00:52:00,
2013-09-23 20:12:00,72.0,54.0,29.68,South,186,5.0,15.0,54,0.00,,,0.00,,2013-09-24 01:12:00,
2013-09-23 20:22:00,71.0,54.0,29.68,South,176,6.0,14.0,56,0.00,,,0.00,,2013-09-24 01:22:00,
2013-09-23 20:43:00,71.0,54.0,29.69,SSW,212,5.0,13.0,56,0.00,,,0.00,,2013-09-24 01:43:00,
2013-09-23 20:52:00,70.0,54.0,29.69,South,177,4.0,12.0,57,0.00,,,0.00,,2013-09-24 01:52:00,
2013-09-23 21:12:00,69.0,54.0,29.70,SSE,156,5.0,11.0,59,0.00,,,0.00,,2013-09-24 02:12:00,
2013-09-23 21:22:00,69.0,55.0,29.70,SSE,148,4.0,11.0,60,0.00,,,0.00,,2013-09-24 02:22:00,
2013-09-23 21:42:00,69.0,55.0,29.71,SSE,151,6.0,13.0,60,0.00,,,0.00,,2013-09-24 02:42:00,
2013-09-23 21:52:00,68.0,54.0,29.71,South,187,5.0,12.0,61,0.00,,,0.00,,2013-09-24 02:52:00,
2013-09-23 22:12:00,69.0,55.0,29.72,SSW,203,6.0,15.0,60,0.00,,,0.00,,2013-09-24 03:12:00,
2013-09-23 22:22:00,69.0,54.0,29.72,SE,132,5.0,14.0,59,0.00,,,0.00,,2013-09-24 03:22:00,
2013-09-23 22:44:00,68.0,54.0,29.73,South,174,6.0,13.0,60,0.00,,,0.00,,2013-09-24 03:44:00,
2013-09-23 22:55:00,67.0,54.0,29.75,SW,231,7.0,15.0,63,0.00,,,0.00,,2013-09-24 03:55:00,
2013-09-23 23:14:00,67.0,55.0,29.76,WSW,257,5.0,10.0,65,0.00,,,0.00,,2013-09-24 04:14:00,
2013-09-23 23:24:00,65.0,54.0,29.77,South,188,5.0,9.0,68,0.00,,,0.00,,2013-09-24 04:24:00,
2013-09-23 23:44:00,66.0,54.0,29.78,WSW,242,7.0,14.0,66,0.00,,,0.00,,2013-09-24 04:44:00,
2013-09-23 23:54:00,64.0,57.0,29.78,West,276,4.0,8.0,77,0.00,,,0.00,,2013-09-24 04:54:00,